createdAt,value
2022-12-29T00:01:03.234Z,99378.00
2022-12-29T00:03:31.881Z,99375.44
2022-12-29T00:06:00.325Z,99375.66
2022-12-29T00:08:40.575Z,99364.81
2022-12-29T00:11:30.468Z,99369.13
2022-12-29T00:14:19.217Z,99365.19
2022-12-29T00:16:49.938Z,99373.22
2022-12-29T00:19:35.724Z,99365.03
2022-12-29T00:22:21.379Z,99371.56
2022-12-29T00:25:12.709Z,99367.53
2022-12-29T00:28:03.059Z,99360.94
2022-12-29T00:30:52.330Z,99355.88
2022-12-29T00:33:41.058Z,99360.38
2022-12-29T00:36:25.740Z,99362.84
2022-12-29T00:39:36.070Z,99355.69
2022-12-29T00:42:27.298Z,99348.59
2022-12-29T00:44:55.788Z,99351.50
2022-12-29T00:47:24.379Z,99337.81
2022-12-29T00:49:51.828Z,99354.16
2022-12-29T00:52:20.470Z,99346.06
2022-12-29T00:54:48.968Z,99343.59
2022-12-29T00:57:17.482Z,99339.94
2022-12-29T00:59:46.318Z,99352.22
2022-12-29T01:02:14.692Z,99353.66
2022-12-29T01:04:43.242Z,99340.56
2022-12-29T01:07:11.706Z,99331.56
2022-12-29T01:09:57.039Z,99340.22
2022-12-29T01:12:39.028Z,99344.31
2022-12-29T01:15:09.257Z,99348.47
2022-12-29T01:17:38.498Z,99347.19
2022-12-29T01:20:07.594Z,99348.22
2022-12-29T01:22:35.685Z,99355.44
2022-12-29T01:25:04.394Z,99355.00
2022-12-29T01:27:32.597Z,99351.75
2022-12-29T01:30:00.740Z,99350.75
2022-12-29T01:32:29.282Z,99348.09
2022-12-29T01:34:57.719Z,99342.25
2022-12-29T01:37:26.623Z,99351.25
2022-12-29T01:39:55.073Z,99347.75
2022-12-29T01:42:27.967Z,99349.66
2022-12-29T01:45:02.612Z,99352.31
2022-12-29T01:47:47.536Z,99337.81
2022-12-29T01:50:34.851Z,99341.44
2022-12-29T01:53:30.322Z,99339.41
2022-12-29T01:56:05.497Z,99338.78
2022-12-29T01:58:40.301Z,99347.97
2022-12-29T02:01:09.300Z,99343.66
2022-12-29T02:03:38.749Z,99324.59
2022-12-29T02:06:26.840Z,99336.06
2022-12-29T02:08:57.647Z,99339.41
2022-12-29T02:11:31.323Z,99340.47
2022-12-29T02:14:03.585Z,99345.25
2022-12-29T02:16:52.108Z,99345.84
2022-12-29T02:19:48.367Z,99343.19
2022-12-29T02:22:29.884Z,99331.31
2022-12-29T02:26:02.692Z,99345.63
2022-12-29T02:29:05.427Z,99326.84
2022-12-29T02:31:42.319Z,99326.22
2022-12-29T02:34:33.350Z,99337.13
2022-12-29T02:37:10.167Z,99320.38
2022-12-29T02:40:02.682Z,99327.16
2022-12-29T02:42:53.304Z,99311.56
2022-12-29T02:45:41.265Z,99307.91
2022-12-29T02:48:38.881Z,99304.16
2022-12-29T02:51:34.961Z,99290.66
2022-12-29T02:54:21.354Z,99271.44
2022-12-29T02:56:49.453Z,99267.97
2022-12-29T02:59:18.679Z,99267.41
2022-12-29T03:02:21.618Z,99263.91
2022-12-29T03:05:16.690Z,99252.84
2022-12-29T03:08:16.227Z,99246.28
2022-12-29T03:11:29.183Z,99235.19
2022-12-29T03:14:31.677Z,99244.59
2022-12-29T03:17:06.306Z,99240.53
2022-12-29T03:19:40.391Z,99235.66
2022-12-29T03:22:32.791Z,99246.50
2022-12-29T03:25:06.832Z,99255.72
2022-12-29T03:27:42.230Z,99259.38
2022-12-29T03:30:11.286Z,99261.03
2022-12-29T03:32:47.174Z,99257.38
2022-12-29T03:35:19.602Z,99255.97
2022-12-29T03:38:20.826Z,99268.06
2022-12-29T03:40:55.482Z,99279.34
2022-12-29T03:43:24.432Z,99283.06
2022-12-29T03:45:52.920Z,99284.31
2022-12-29T03:48:21.450Z,99275.50
2022-12-29T03:50:49.901Z,99281.63
2022-12-29T03:53:18.706Z,99286.97
2022-12-29T03:55:47.246Z,99298.50
2022-12-29T03:58:15.688Z,99294.56
2022-12-29T04:00:44.171Z,99300.47
2022-12-29T04:03:12.497Z,99305.19
2022-12-29T04:05:41.308Z,99306.88
2022-12-29T04:08:09.805Z,99316.44
2022-12-29T04:10:38.298Z,99322.16
2022-12-29T04:13:06.839Z,99321.34
2022-12-29T04:15:35.643Z,99322.00
2022-12-29T04:18:03.851Z,99315.22
2022-12-29T04:20:49.932Z,99316.84
2022-12-29T04:23:17.946Z,99296.63
2022-12-29T04:25:48.786Z,99299.03
2022-12-29T04:28:18.321Z,99298.03
2022-12-29T04:30:47.870Z,99286.72
2022-12-29T04:33:16.556Z,99287.97
2022-12-29T04:35:47.130Z,99288.19
2022-12-29T04:38:16.292Z,99280.44
2022-12-29T04:40:45.933Z,99283.56
2022-12-29T04:43:15.098Z,99270.81
2022-12-29T04:45:49.315Z,99277.56
2022-12-29T04:48:17.521Z,99275.53
2022-12-29T04:50:50.571Z,99275.72
2022-12-29T04:53:20.071Z,99268.53
2022-12-29T04:55:54.961Z,99259.53
2022-12-29T04:58:23.542Z,99261.63
2022-12-29T05:00:53.467Z,99268.16
2022-12-29T05:03:22.167Z,99254.44
2022-12-29T05:05:50.747Z,99249.94
2022-12-29T05:08:23.161Z,99237.41
2022-12-29T05:10:54.494Z,99245.84
2022-12-29T05:13:22.624Z,99247.25
2022-12-29T05:15:53.819Z,99238.22
2022-12-29T05:18:22.437Z,99234.28
2022-12-29T05:20:50.926Z,99237.78
2022-12-29T05:23:19.574Z,99238.41
2022-12-29T05:25:47.708Z,99239.59
2022-12-29T05:28:15.916Z,99237.31
2022-12-29T05:30:43.988Z,99242.81
2022-12-29T05:33:12.733Z,99229.09
2022-12-29T05:35:41.366Z,99242.41
2022-12-29T05:38:09.833Z,99236.06
2022-12-29T05:40:37.897Z,99233.19
2022-12-29T05:43:06.039Z,99226.00
2022-12-29T05:45:34.195Z,99243.63
2022-12-29T05:48:02.744Z,99234.84
2022-12-29T05:50:30.899Z,99235.03
2022-12-29T05:52:59.015Z,99229.91
2022-12-29T05:55:27.060Z,99225.00
2022-12-29T05:57:55.157Z,99228.41
2022-12-29T06:00:23.336Z,99226.38
2022-12-29T06:02:51.752Z,99213.91
2022-12-29T06:05:20.054Z,99211.81
2022-12-29T06:07:48.559Z,99215.50
2022-12-29T06:10:17.065Z,99222.06
2022-12-29T06:12:45.131Z,99221.94
2022-12-29T06:15:13.581Z,99217.41
2022-12-29T06:17:42.181Z,99218.91
2022-12-29T06:20:11.845Z,99223.59
2022-12-29T06:22:40.314Z,99212.13
2022-12-29T06:25:09.087Z,99225.31
2022-12-29T06:27:37.233Z,99216.50
2022-12-29T06:30:06.067Z,99227.38
2022-12-29T06:32:34.233Z,99227.59
2022-12-29T06:35:02.343Z,99221.84
2022-12-29T06:37:30.902Z,99228.38
2022-12-29T06:39:59.427Z,99230.41
2022-12-29T06:42:27.489Z,99236.97
2022-12-29T06:44:58.597Z,99232.09
2022-12-29T06:47:27.059Z,99227.63
2022-12-29T06:49:55.593Z,99216.09
2022-12-29T06:52:25.062Z,99225.72
2022-12-29T06:54:53.541Z,99231.25
2022-12-29T06:57:22.191Z,99230.84
2022-12-29T06:59:50.413Z,99220.63
2022-12-29T07:02:19.373Z,99214.25
2022-12-29T07:04:47.937Z,99219.16
2022-12-29T07:07:16.669Z,99212.78
2022-12-29T07:09:45.555Z,99212.94
2022-12-29T07:12:14.302Z,99207.41
2022-12-29T07:14:43.478Z,99217.78
2022-12-29T07:17:12.232Z,99211.44
2022-12-29T07:19:40.791Z,99219.19
2022-12-29T07:22:08.924Z,99218.56
2022-12-29T07:24:38.071Z,99217.34
2022-12-29T07:27:06.775Z,99215.34
2022-12-29T07:29:35.411Z,99211.44
2022-12-29T07:32:03.896Z,99214.75
2022-12-29T07:34:32.026Z,99205.53
2022-12-29T07:37:00.181Z,99216.19
2022-12-29T07:39:28.248Z,99222.31
2022-12-29T07:42:02.682Z,99221.09
2022-12-29T07:44:32.845Z,99214.56
2022-12-29T07:47:01.505Z,99213.53
2022-12-29T07:49:30.564Z,99228.91
2022-12-29T07:51:59.054Z,99218.06
2022-12-29T07:54:27.533Z,99216.06
2022-12-29T07:56:56.044Z,99225.69
2022-12-29T07:59:24.666Z,99230.41
2022-12-29T08:01:52.995Z,99234.69
2022-12-29T08:04:21.730Z,99234.47
2022-12-29T08:06:50.223Z,99233.47
2022-12-29T08:09:22.708Z,99238.03
2022-12-29T08:11:53.025Z,99243.97
2022-12-29T08:14:21.149Z,99228.16
2022-12-29T08:16:50.014Z,99242.75
2022-12-29T08:19:18.638Z,99228.19
2022-12-29T08:21:46.843Z,99226.19
2022-12-29T08:24:14.984Z,99234.16
2022-12-29T08:26:43.518Z,99231.50
2022-12-29T08:29:12.058Z,99229.47
2022-12-29T08:31:40.283Z,99239.53
2022-12-29T08:34:08.366Z,99235.66
2022-12-29T08:36:36.884Z,99234.03
2022-12-29T08:39:05.399Z,99230.13
2022-12-29T08:41:33.666Z,99233.84
2022-12-29T08:44:02.238Z,99233.44
2022-12-29T08:46:30.397Z,99230.38
2022-12-29T08:48:58.886Z,99220.97
2022-12-29T08:51:27.433Z,99228.34
2022-12-29T08:53:55.937Z,99225.50
2022-12-29T08:56:24.844Z,99235.97
2022-12-29T08:58:54.847Z,99231.66
2022-12-29T09:01:23.693Z,99230.63
2022-12-29T09:06:41.127Z,99223.03
2022-12-29T09:09:09.588Z,99223.44
2022-12-29T09:11:37.719Z,99226.50
2022-12-29T09:14:06.558Z,99236.75
2022-12-29T09:16:35.937Z,99234.09
2022-12-29T09:19:04.796Z,99230.63
2022-12-29T09:21:33.485Z,99230.63
2022-12-29T09:24:01.643Z,99239.84
2022-12-29T09:26:29.681Z,99245.00
2022-12-29T09:28:57.877Z,99233.72
2022-12-29T09:31:27.268Z,99238.22
2022-12-29T09:33:55.389Z,99244.59
2022-12-29T09:36:23.532Z,99233.13
2022-12-29T09:38:52.672Z,99226.53
2022-12-29T09:41:43.356Z,99227.00
2022-12-29T09:44:51.680Z,99223.06
2022-12-29T09:47:21.992Z,99228.41
2022-12-29T09:50:06.924Z,99228.00
2022-12-29T09:52:45.081Z,99218.31
2022-12-29T09:55:18.616Z,99210.09
2022-12-29T09:57:59.031Z,99195.31
2022-12-29T10:00:54.842Z,99204.91
2022-12-29T10:03:28.700Z,99199.16
2022-12-29T10:06:25.210Z,99200.16
2022-12-29T10:09:13.971Z,99195.22
2022-12-29T10:12:12.505Z,99199.31
2022-12-29T10:15:14.517Z,99199.69
2022-12-29T10:18:30.951Z,99190.84
2022-12-29T10:21:50.063Z,99188.19
2022-12-29T10:24:21.080Z,99184.25
2022-12-29T10:26:51.901Z,99164.16
2022-12-29T10:29:35.701Z,99173.19
2022-12-29T10:32:39.195Z,99180.22
2022-12-29T10:35:16.896Z,99188.22
2022-12-29T10:38:02.376Z,99183.53
2022-12-29T10:40:45.832Z,99187.84
2022-12-29T10:43:47.959Z,99189.53
2022-12-29T10:46:22.387Z,99188.28
2022-12-29T10:48:50.907Z,99193.00
2022-12-29T10:51:35.644Z,99190.50
2022-12-29T10:54:29.157Z,99196.38
2022-12-29T10:57:04.634Z,99197.97
2022-12-29T10:59:36.413Z,99191.59
2022-12-29T11:02:13.543Z,99201.25
2022-12-29T11:05:05.090Z,99197.31
2022-12-29T11:07:34.212Z,99193.34
2022-12-29T11:10:36.501Z,99183.88
2022-12-29T11:13:29.946Z,99195.16
2022-12-29T11:16:03.980Z,99197.81
2022-12-29T11:18:43.682Z,99193.69
2022-12-29T11:21:35.663Z,99192.00
2022-12-29T11:24:07.301Z,99194.84
2022-12-29T11:26:35.896Z,99181.25
2022-12-29T11:29:10.053Z,99182.63
2022-12-29T11:31:49.637Z,99172.81
2022-12-29T11:34:28.072Z,99187.38
2022-12-29T11:37:35.440Z,99184.72
2022-12-29T11:40:09.234Z,99183.31
2022-12-29T11:42:51.232Z,99194.41
2022-12-29T11:45:29.229Z,99196.91
2022-12-29T11:48:02.529Z,99205.38
2022-12-29T11:50:34.165Z,99201.84
2022-12-29T11:53:16.168Z,99196.44
2022-12-29T11:56:08.725Z,99191.91
2022-12-29T11:58:40.143Z,99185.53
2022-12-29T12:01:14.585Z,99192.06
2022-12-29T12:04:07.160Z,99194.66
2022-12-29T12:06:43.032Z,99196.34
2022-12-29T12:09:25.721Z,99199.22
2022-12-29T12:11:57.931Z,99191.59
2022-12-29T12:14:53.305Z,99189.09
2022-12-29T12:17:36.997Z,99192.53
2022-12-29T12:20:46.258Z,99182.81
2022-12-29T12:23:38.300Z,99194.94
2022-12-29T12:26:32.648Z,99189.38
2022-12-29T12:29:16.788Z,99189.75
2022-12-29T12:31:45.289Z,99187.22
2022-12-29T12:34:28.695Z,99190.53
2022-12-29T12:36:57.107Z,99188.25
2022-12-29T12:39:38.881Z,99186.56
2022-12-29T12:42:06.968Z,99179.56
2022-12-29T12:45:22.953Z,99183.50
2022-12-29T12:47:58.540Z,99185.13
2022-12-29T12:50:53.550Z,99193.84
2022-12-29T12:53:40.401Z,99193.47
2022-12-29T12:56:41.603Z,99194.97
2022-12-29T12:59:36.132Z,99189.25
2022-12-29T13:02:04.676Z,99195.47
2022-12-29T13:04:51.099Z,99208.22
2022-12-29T13:07:55.603Z,99199.41
2022-12-29T13:10:51.383Z,99202.97
2022-12-29T13:13:24.970Z,99194.31
2022-12-29T13:16:14.459Z,99200.88
2022-12-29T13:18:51.910Z,99208.69
2022-12-29T13:22:09.073Z,99209.34
2022-12-29T13:24:40.559Z,99218.97
2022-12-29T13:27:37.972Z,99224.56
2022-12-29T13:30:43.688Z,99223.19
2022-12-29T13:33:35.407Z,99218.09
2022-12-29T13:36:27.194Z,99221.41
2022-12-29T13:39:17.423Z,99208.03
2022-12-29T13:41:54.128Z,99213.16
2022-12-29T13:44:36.723Z,99216.22
2022-12-29T13:47:33.506Z,99221.47
2022-12-29T13:50:06.330Z,99219.66
2022-12-29T13:53:08.996Z,99219.44
2022-12-29T13:55:58.118Z,99227.03
2022-12-29T13:58:55.056Z,99237.78
2022-12-29T14:01:43.012Z,99249.50
2022-12-29T14:04:26.211Z,99248.50
2022-12-29T14:07:15.858Z,99251.03
2022-12-29T14:09:54.479Z,99260.31
2022-12-29T14:12:44.613Z,99257.66
2022-12-29T14:15:13.157Z,99263.84
2022-12-29T14:17:44.082Z,99263.00
2022-12-29T14:20:23.824Z,99271.00
2022-12-29T14:23:02.809Z,99276.38
2022-12-29T14:26:12.594Z,99275.53
2022-12-29T14:28:50.319Z,99274.94
2022-12-29T14:31:21.475Z,99281.91
2022-12-29T14:34:12.675Z,99280.50
2022-12-29T14:36:59.715Z,99276.81
2022-12-29T14:39:47.339Z,99284.84
2022-12-29T14:42:23.698Z,99282.38
2022-12-29T14:45:11.093Z,99282.78
2022-12-29T14:47:43.588Z,99297.19
2022-12-29T14:50:24.892Z,99304.38
2022-12-29T14:53:03.532Z,99297.59
2022-12-29T14:55:48.486Z,99295.34
2022-12-29T14:58:32.485Z,99290.81
2022-12-29T15:01:02.678Z,99301.69
2022-12-29T15:03:51.149Z,99300.69
2022-12-29T15:06:23.370Z,99309.47
2022-12-29T15:09:02.453Z,99307.44
2022-12-29T15:11:43.011Z,99320.97
2022-12-29T15:14:41.989Z,99321.81
2022-12-29T15:17:32.754Z,99317.72
2022-12-29T15:20:23.505Z,99325.91
2022-12-29T15:22:58.379Z,99330.41
2022-12-29T15:25:28.400Z,99330.03
2022-12-29T15:28:03.852Z,99335.97
2022-12-29T15:30:32.530Z,99331.88
2022-12-29T15:33:00.724Z,99340.28
2022-12-29T15:35:40.242Z,99347.47
2022-12-29T15:38:31.219Z,99352.16
2022-12-29T15:41:30.741Z,99352.78
2022-12-29T15:44:28.403Z,99363.00
2022-12-29T15:46:56.977Z,99360.72
2022-12-29T15:49:31.853Z,99360.50
2022-12-29T15:52:01.309Z,99366.22
2022-12-29T15:54:33.487Z,99373.78
2022-12-29T15:57:01.997Z,99379.56
2022-12-29T15:59:34.420Z,99385.28
2022-12-29T16:02:08.767Z,99378.50
2022-12-29T16:05:01.601Z,99380.31
2022-12-29T16:07:41.669Z,99373.91
2022-12-29T16:10:37.784Z,99390.72
2022-12-29T16:13:29.658Z,99397.84
2022-12-29T16:16:05.349Z,99400.91
2022-12-29T16:18:38.744Z,99402.31
2022-12-29T16:21:17.558Z,99396.75
2022-12-29T16:23:50.744Z,99392.63
2022-12-29T16:26:22.137Z,99391.41
2022-12-29T16:28:55.888Z,99399.19
2022-12-29T16:31:39.335Z,99393.41
2022-12-29T16:34:48.918Z,99389.91
2022-12-29T16:37:38.687Z,99390.50
2022-12-29T16:40:28.653Z,99400.72
2022-12-29T16:43:02.794Z,99389.19
2022-12-29T16:45:49.698Z,99395.91
2022-12-29T16:48:23.508Z,99403.28
2022-12-29T16:50:52.521Z,99403.22
2022-12-29T16:53:52.808Z,99416.50
2022-12-29T16:56:26.525Z,99412.56
2022-12-29T16:59:10.766Z,99409.84
2022-12-29T17:01:42.417Z,99416.59
2022-12-29T17:04:13.565Z,99412.66
2022-12-29T17:06:42.357Z,99415.88
2022-12-29T17:09:29.071Z,99411.94
2022-12-29T17:12:10.685Z,99413.38
2022-12-29T17:14:47.578Z,99412.25
2022-12-29T17:17:20.074Z,99419.59
2022-12-29T17:19:55.242Z,99412.38
2022-12-29T17:22:28.280Z,99415.81
2022-12-29T17:25:00.739Z,99422.97
2022-12-29T17:27:40.322Z,99421.69
2022-12-29T17:30:25.061Z,99426.75
2022-12-29T17:33:08.995Z,99417.69
2022-12-29T17:35:37.889Z,99422.38
2022-12-29T17:38:20.417Z,99416.22
2022-12-29T17:40:49.399Z,99420.25
2022-12-29T17:43:18.445Z,99423.31
2022-12-29T17:45:57.867Z,99417.34
2022-12-29T17:48:27.208Z,99425.72
2022-12-29T17:50:58.436Z,99421.03
2022-12-29T17:53:30.533Z,99427.53
2022-12-29T17:55:59.156Z,99428.91
2022-12-29T17:58:31.655Z,99436.72
2022-12-29T18:01:03.891Z,99436.06
2022-12-29T18:03:35.261Z,99443.69
2022-12-29T18:06:06.585Z,99436.91
2022-12-29T18:08:38.748Z,99437.56
2022-12-29T18:11:28.124Z,99440.22
2022-12-29T18:13:57.129Z,99437.19
2022-12-29T18:16:25.823Z,99426.16
2022-12-29T18:18:54.316Z,99435.13
2022-12-29T18:21:25.493Z,99439.19
2022-12-29T18:23:54.300Z,99440.59
2022-12-29T18:26:28.977Z,99445.53
2022-12-29T18:29:01.923Z,99445.78
2022-12-29T18:31:33.581Z,99443.50
2022-12-29T18:34:05.914Z,99443.69
2022-12-29T18:36:34.508Z,99447.53
2022-12-29T18:39:02.613Z,99446.91
2022-12-29T18:41:31.233Z,99439.94
2022-12-29T18:44:00.685Z,99437.47
2022-12-29T18:46:30.061Z,99443.78
2022-12-29T18:48:58.639Z,99439.69
2022-12-29T18:51:27.417Z,99450.31
2022-12-29T18:53:55.849Z,99453.97
2022-12-29T18:56:25.587Z,99461.13
2022-12-29T18:58:55.492Z,99467.00
2022-12-29T19:01:29.278Z,99463.53
2022-12-29T19:03:57.904Z,99463.69
2022-12-29T19:06:26.525Z,99461.41
2022-12-29T19:08:54.975Z,99461.97
2022-12-29T19:11:24.286Z,99465.44
2022-12-29T19:13:52.904Z,99469.13
2022-12-29T19:16:23.762Z,99466.19
2022-12-29T19:19:08.303Z,99466.00
2022-12-29T19:21:38.103Z,99467.38
2022-12-29T19:24:06.628Z,99459.78
2022-12-29T19:26:39.420Z,99458.13
2022-12-29T19:29:12.360Z,99455.19
2022-12-29T19:31:40.912Z,99452.91
2022-12-29T19:34:09.053Z,99455.94
2022-12-29T19:36:37.104Z,99449.78
2022-12-29T19:39:05.875Z,99452.00
2022-12-29T19:41:34.495Z,99456.69
2022-12-29T19:44:02.900Z,99446.84
2022-12-29T19:46:31.405Z,99442.56
2022-12-29T19:49:00.601Z,99444.56
2022-12-29T19:51:29.566Z,99440.28
2022-12-29T19:53:58.528Z,99439.44
2022-12-29T19:56:27.095Z,99450.06
2022-12-29T19:58:57.596Z,99440.66
2022-12-29T20:01:26.586Z,99437.63
2022-12-29T20:03:55.215Z,99448.97
2022-12-29T20:06:23.268Z,99445.88
2022-12-29T20:08:51.361Z,99450.16
2022-12-29T20:11:20.669Z,99455.66
2022-12-29T20:13:49.511Z,99458.31
2022-12-29T20:16:20.711Z,99455.47
2022-12-29T20:18:49.633Z,99454.28
2022-12-29T20:21:21.811Z,99450.97
2022-12-29T20:23:52.141Z,99457.47
2022-12-29T20:26:30.330Z,99463.44
2022-12-29T20:29:00.142Z,99475.25
2022-12-29T20:31:38.940Z,99480.03
2022-12-29T20:34:08.831Z,99469.78
2022-12-29T20:36:41.621Z,99466.75
2022-12-29T20:39:15.869Z,99466.91
2022-12-29T20:41:45.334Z,99457.59
2022-12-29T20:44:14.156Z,99466.00
2022-12-29T20:46:44.312Z,99464.00
2022-12-29T20:49:12.871Z,99472.53
2022-12-29T20:54:38.488Z,99471.69
2022-12-29T20:57:07.797Z,99477.91
2022-12-29T20:59:35.892Z,99483.69
2022-12-29T21:02:04.463Z,99487.53
2022-12-29T21:05:05.071Z,99495.19
2022-12-29T21:07:21.621Z,99491.28
2022-12-29T21:09:49.790Z,99494.47
2022-12-29T21:12:18.197Z,99500.72
2022-12-29T21:14:46.285Z,99498.69
2022-12-29T21:17:14.783Z,99502.69
2022-12-29T21:19:43.376Z,99498.78
2022-12-29T21:22:11.728Z,99511.13
2022-12-29T21:24:40.293Z,99502.25
2022-12-29T21:27:08.863Z,99501.13
2022-12-29T21:29:36.986Z,99505.13
2022-12-29T21:32:06.801Z,99501.69
2022-12-29T21:34:36.028Z,99504.50
2022-12-29T21:37:04.431Z,99500.28
2022-12-29T21:39:32.886Z,99510.91
2022-12-29T21:42:02.625Z,99520.75
2022-12-29T21:44:48.355Z,99519.91
2022-12-29T21:47:16.761Z,99523.91
2022-12-29T21:49:45.148Z,99515.13
2022-12-29T21:52:13.557Z,99517.31
2022-12-29T21:54:58.807Z,99528.41
2022-12-29T21:57:44.562Z,99524.28
2022-12-29T22:00:31.271Z,99533.72
2022-12-29T22:03:23.103Z,99536.38
2022-12-29T22:06:11.093Z,99536.31
2022-12-29T22:08:57.353Z,99534.00
2022-12-29T22:11:42.702Z,99539.03
2022-12-29T22:14:10.899Z,99539.22
2022-12-29T22:16:39.270Z,99533.44
2022-12-29T22:19:08.832Z,99536.56
2022-12-29T22:21:36.962Z,99533.59
2022-12-29T22:24:05.260Z,99534.94
2022-12-29T22:26:33.759Z,99532.28
2022-12-29T22:29:02.341Z,99545.75
2022-12-29T22:31:32.860Z,99553.38
2022-12-29T22:34:04.755Z,99560.03
2022-12-29T22:36:33.847Z,99563.69
2022-12-29T22:39:01.947Z,99571.00
2022-12-29T22:41:30.354Z,99578.31
2022-12-29T22:43:58.848Z,99569.34
2022-12-29T22:46:26.949Z,99581.16
2022-12-29T22:48:55.110Z,99583.31
2022-12-29T22:51:23.525Z,99587.34
2022-12-29T22:53:52.404Z,99599.31
2022-12-29T22:56:20.900Z,99604.97
2022-12-29T22:58:50.012Z,99609.59
2022-12-29T23:01:22.504Z,99609.13
2022-12-29T23:03:51.509Z,99609.44
2022-12-29T23:06:20.091Z,99617.41
2022-12-29T23:08:48.609Z,99623.59
2022-12-29T23:11:17.465Z,99617.81
2022-12-29T23:13:46.189Z,99614.69
2022-12-29T23:16:16.083Z,99618.50
2022-12-29T23:18:45.302Z,99629.28
2022-12-29T23:21:13.949Z,99623.69
2022-12-29T23:23:57.504Z,99610.56
2022-12-29T23:26:45.772Z,99605.63
2022-12-29T23:29:20.406Z,99611.59
2022-12-29T23:31:49.824Z,99605.81
2022-12-29T23:34:18.541Z,99615.78
2022-12-29T23:36:47.107Z,99613.13
2022-12-29T23:39:24.464Z,99618.25
2022-12-29T23:41:53.929Z,99620.75
2022-12-29T23:44:22.439Z,99622.03
2022-12-29T23:46:51.045Z,99620.69
2022-12-29T23:49:19.330Z,99628.97
2022-12-29T23:51:47.333Z,99638.75
2022-12-29T23:54:15.819Z,99640.22
2022-12-29T23:56:44.206Z,99641.72
2022-12-29T23:59:12.705Z,99638.91
